createdAt,value
2023-05-01T00:00:07.980Z,91.71
2023-05-01T00:01:48.353Z,91.7
2023-05-01T00:03:28.892Z,91.87
2023-05-01T00:05:09.429Z,91.66
2023-05-01T00:06:49.740Z,91.51
2023-05-01T00:08:30.057Z,92.15
2023-05-01T00:10:10.510Z,92.25
2023-05-01T00:11:50.935Z,91.54
2023-05-01T00:13:31.332Z,91.6
2023-05-01T00:15:11.782Z,91.7
2023-05-01T00:16:52.114Z,91.53
2023-05-01T00:18:32.437Z,91.98
2023-05-01T00:20:12.974Z,91.93
2023-05-01T00:21:53.382Z,92.36
2023-05-01T00:23:33.736Z,92.59
2023-05-01T00:25:14.161Z,92.53
2023-05-01T00:26:54.544Z,91.83
2023-05-01T00:28:34.875Z,91.65
2023-05-01T00:30:15.206Z,91.85
2023-05-01T00:31:55.705Z,91.61
2023-05-01T00:33:35.974Z,91.48
2023-05-01T00:35:16.490Z,90.92
2023-05-01T00:36:56.922Z,91.04
2023-05-01T00:38:37.345Z,90.76
2023-05-01T00:40:17.668Z,90.82
2023-05-01T00:41:58.017Z,91.42
2023-05-01T00:43:38.450Z,91.77
2023-05-01T00:45:18.873Z,91.35
2023-05-01T00:46:59.231Z,91.53
2023-05-01T00:48:39.702Z,92.16
2023-05-01T00:50:20.162Z,92.33
2023-05-01T00:52:00.557Z,91.9
2023-05-01T00:53:40.950Z,92.12
2023-05-01T00:55:21.385Z,92.59
2023-05-01T00:57:01.810Z,92.36
2023-05-01T00:58:42.244Z,92.34
2023-05-01T01:00:22.648Z,92.15
2023-05-01T01:02:03.002Z,92.11
2023-05-01T01:03:43.401Z,91.87
2023-05-01T01:05:23.803Z,91.35
2023-05-01T01:07:04.217Z,91.56
2023-05-01T01:08:44.556Z,92.23
2023-05-01T01:10:24.954Z,92.93
2023-05-01T01:12:05.370Z,92.75
2023-05-01T01:13:45.786Z,92.2
2023-05-01T01:15:26.129Z,91.57
2023-05-01T01:17:06.560Z,91.58
2023-05-01T01:18:46.909Z,91.58
2023-05-01T01:20:27.384Z,91.95
2023-05-01T01:22:07.811Z,92.23
2023-05-01T01:23:48.227Z,92.58
2023-05-01T01:25:28.620Z,92.99
2023-05-01T01:27:09.062Z,92.82
2023-05-01T01:28:49.498Z,92.66
2023-05-01T01:30:29.904Z,92.82
2023-05-01T01:32:10.278Z,92.91
2023-05-01T01:33:50.662Z,92.89
2023-05-01T01:35:31.110Z,92.92
2023-05-01T01:37:11.485Z,93.44
2023-05-01T01:38:51.846Z,93.68
2023-05-01T01:40:32.264Z,93.62
2023-05-01T01:42:12.720Z,93.08
2023-05-01T01:43:53.112Z,93.05
2023-05-01T01:45:33.522Z,93.16
2023-05-01T01:47:13.957Z,93.33
2023-05-01T01:48:54.350Z,93.52
2023-05-01T01:50:34.755Z,93.66
2023-05-01T01:52:15.203Z,93.78
2023-05-01T01:53:55.640Z,93.75
2023-05-01T01:55:36.098Z,93.92
2023-05-01T01:57:16.466Z,94.23
2023-05-01T01:58:56.864Z,94.55
2023-05-01T02:00:37.237Z,94.78
2023-05-01T02:02:17.692Z,94.83
2023-05-01T02:03:58.200Z,94.98
2023-05-01T02:05:38.402Z,95.03
2023-05-01T02:07:18.818Z,94.8
2023-05-01T02:08:59.172Z,94.85
2023-05-01T02:10:39.560Z,94.87
2023-05-01T02:12:19.966Z,95
2023-05-01T02:14:00.354Z,95.1
2023-05-01T02:15:40.783Z,95.3
2023-05-01T02:17:21.125Z,95.35
2023-05-01T02:19:01.407Z,95.21
2023-05-01T02:20:41.775Z,95.1
2023-05-01T02:22:22.056Z,94.92
2023-05-01T02:24:02.392Z,95.01
2023-05-01T02:25:42.761Z,94.8
2023-05-01T02:27:23.112Z,94.99
2023-05-01T02:29:03.535Z,95.1
2023-05-01T02:30:44.017Z,95.1
2023-05-01T02:32:24.502Z,95.04
2023-05-01T02:34:04.960Z,95.03
2023-05-01T02:35:45.324Z,94.95
2023-05-01T02:37:25.780Z,94.53
2023-05-01T02:39:06.220Z,94.47
2023-05-01T02:40:46.680Z,94.42
2023-05-01T02:42:27.033Z,94.48
2023-05-01T02:44:07.379Z,94.56
2023-05-01T02:45:47.866Z,94.54
2023-05-01T02:47:28.380Z,94.71
2023-05-01T02:49:08.622Z,94.47
2023-05-01T02:50:49.101Z,94.23
2023-05-01T02:52:29.585Z,94.39
2023-05-01T02:54:10.010Z,94.48
2023-05-01T02:55:50.311Z,94.33
2023-05-01T02:57:30.675Z,94.23
2023-05-01T02:59:11.055Z,94.09
2023-05-01T03:00:51.540Z,94.45
2023-05-01T03:02:31.775Z,94.34
2023-05-01T03:04:12.226Z,94.15
2023-05-01T03:05:52.642Z,94.68
2023-05-01T03:07:32.995Z,94.58
2023-05-01T03:09:13.420Z,94.47
2023-05-01T03:10:53.896Z,94.46
2023-05-01T03:12:34.233Z,94.77
2023-05-01T03:14:14.630Z,94.94
2023-05-01T03:15:55.157Z,95.08
2023-05-01T03:17:35.539Z,94.99
2023-05-01T03:19:15.885Z,94.85
2023-05-01T03:20:56.265Z,95.03
2023-05-01T03:22:36.577Z,95.27
2023-05-01T03:24:16.983Z,94.87
2023-05-01T03:25:57.475Z,94.71
2023-05-01T03:27:37.796Z,94.77
2023-05-01T03:29:18.284Z,95.11
2023-05-01T03:30:58.616Z,95.2
2023-05-01T03:32:39.170Z,95.23
2023-05-01T03:34:19.504Z,95.15
2023-05-01T03:35:59.906Z,95.5
2023-05-01T03:37:40.296Z,95.93
2023-05-01T03:39:20.734Z,96.16
2023-05-01T03:41:01.166Z,96.19
2023-05-01T03:42:41.592Z,96.06
2023-05-01T03:44:21.973Z,95.88
2023-05-01T03:46:02.357Z,95.76
2023-05-01T03:47:42.723Z,95.79
2023-05-01T03:49:23.071Z,95.79
2023-05-01T03:51:03.472Z,95.74
2023-05-01T03:52:43.833Z,95.55
2023-05-01T03:54:24.204Z,95.61
2023-05-01T03:56:04.633Z,95.26
2023-05-01T03:57:45.007Z,95.26
2023-05-01T03:59:25.333Z,95.39
2023-05-01T04:01:05.727Z,95.4
2023-05-01T04:02:46.479Z,95.33
2023-05-01T04:04:26.751Z,95.32
2023-05-01T04:06:07.157Z,95.34
2023-05-01T04:07:47.522Z,95.5
2023-05-01T04:09:27.886Z,95.75
2023-05-01T04:11:08.255Z,95.97
2023-05-01T04:12:48.601Z,96
2023-05-01T04:14:28.969Z,96.23
2023-05-01T04:16:09.342Z,96.19
2023-05-01T04:17:49.728Z,96.29
2023-05-01T04:19:30.037Z,96.3
2023-05-01T04:21:10.389Z,96.35
2023-05-01T04:22:50.723Z,96.07
2023-05-01T04:24:31.093Z,96.04
2023-05-01T04:26:11.435Z,96.01
2023-05-01T04:27:51.771Z,95.9
2023-05-01T04:29:32.229Z,96
2023-05-01T04:31:12.638Z,96
2023-05-01T04:32:53.112Z,96.1
2023-05-01T04:34:33.568Z,96.04
2023-05-01T04:36:13.967Z,96.07
2023-05-01T04:37:54.375Z,95.96
2023-05-01T04:39:34.786Z,95.96
2023-05-01T04:41:15.173Z,95.84
2023-05-01T04:42:55.640Z,95.79
2023-05-01T04:44:36.054Z,95.71
2023-05-01T04:46:16.649Z,95.52
2023-05-01T04:47:56.958Z,95.44
2023-05-01T04:49:37.199Z,95.43
2023-05-01T04:51:17.705Z,95.29
2023-05-01T04:52:58.106Z,95.18
2023-05-01T04:54:38.544Z,95.03
2023-05-01T04:56:18.980Z,94.88
2023-05-01T04:57:59.411Z,94.72
2023-05-01T04:59:39.812Z,94.49
2023-05-01T05:01:20.296Z,94.52
2023-05-01T05:03:00.799Z,94.44
2023-05-01T05:04:41.136Z,94.31
2023-05-01T05:06:21.622Z,93.94
2023-05-01T05:08:02.007Z,93.93
2023-05-01T05:09:42.331Z,94.18
2023-05-01T05:11:22.704Z,94.04
2023-05-01T05:13:03.058Z,94.1
2023-05-01T05:14:43.443Z,94.01
2023-05-01T05:16:23.815Z,93.51
2023-05-01T05:18:04.198Z,93.41
2023-05-01T05:19:44.439Z,92.97
2023-05-01T05:21:24.803Z,92.95
2023-05-01T05:23:05.535Z,92.91
2023-05-01T05:24:45.560Z,92.79
2023-05-01T05:26:25.921Z,91.54
2023-05-01T05:28:06.416Z,89.52
2023-05-01T05:29:46.812Z,88.42
2023-05-01T05:31:27.276Z,88.57
2023-05-01T05:33:07.819Z,88.7
2023-05-01T05:34:48.184Z,85.96
2023-05-01T05:36:28.624Z,86.43
2023-05-01T05:38:09.087Z,83.51
2023-05-01T05:39:49.476Z,81.91
2023-05-01T05:41:29.962Z,81.36
2023-05-01T05:43:10.370Z,79.42
2023-05-01T05:44:50.757Z,79.23
2023-05-01T05:46:31.151Z,79.24
2023-05-01T05:48:11.709Z,78.75
2023-05-01T05:49:52.121Z,78.98
2023-05-01T05:51:32.612Z,77.76
2023-05-01T05:53:12.947Z,76.79
2023-05-01T05:54:53.363Z,76.6
2023-05-01T05:56:33.830Z,76.38
2023-05-01T05:58:14.262Z,75.4
2023-05-01T05:59:54.840Z,71.94
2023-05-01T06:01:35.106Z,72.22
2023-05-01T06:03:15.483Z,69.69
2023-05-01T06:04:55.753Z,69.29
2023-05-01T06:06:36.279Z,69.01
2023-05-01T06:08:16.649Z,68.39
2023-05-01T06:09:57.258Z,68.11
2023-05-01T06:11:37.477Z,67.07
2023-05-01T06:13:17.941Z,66.88
2023-05-01T06:14:58.419Z,65.51
2023-05-01T06:16:38.954Z,66.45
2023-05-01T06:18:19.258Z,65.61
2023-05-01T06:19:59.814Z,64.86
2023-05-01T06:21:40.141Z,64.75
2023-05-01T06:23:20.631Z,65.34
2023-05-01T06:25:00.980Z,65.43
2023-05-01T06:26:41.401Z,65.52
2023-05-01T06:28:21.880Z,64.67
2023-05-01T06:30:02.392Z,64.03
2023-05-01T06:31:42.825Z,64.72
2023-05-01T06:33:23.208Z,63.54
2023-05-01T06:35:03.631Z,63.29
2023-05-01T06:36:43.976Z,63.28
2023-05-01T06:38:26.877Z,61.97
2023-05-01T06:40:04.837Z,63.04
2023-05-01T06:41:45.240Z,62.24
2023-05-01T06:43:25.600Z,62.48
2023-05-01T06:45:06.032Z,61.86
2023-05-01T06:46:46.463Z,60.63
2023-05-01T06:48:26.833Z,61.65
2023-05-01T06:50:07.453Z,61.84
2023-05-01T06:51:47.832Z,59.86
2023-05-01T06:53:28.217Z,59.03
2023-05-01T06:55:08.684Z,58.41
2023-05-01T06:56:49.067Z,56.8
2023-05-01T06:58:29.369Z,57.03
2023-05-01T07:00:09.747Z,57.52
2023-05-01T07:01:50.145Z,57
2023-05-01T07:03:30.624Z,57.64
2023-05-01T07:05:11.031Z,57.53
2023-05-01T07:06:51.457Z,55.52
2023-05-01T07:08:31.880Z,55.57
2023-05-01T07:10:12.237Z,55.3
2023-05-01T07:11:52.687Z,56.01
2023-05-01T07:13:33.071Z,55.56
2023-05-01T07:15:13.441Z,55.88
2023-05-01T07:16:53.982Z,55.7
2023-05-01T07:18:34.412Z,54.53
2023-05-01T07:20:14.797Z,53.95
2023-05-01T07:21:55.139Z,53.91
2023-05-01T07:23:35.520Z,52.28
2023-05-01T07:25:15.903Z,53.64
2023-05-01T07:26:56.262Z,52.11
2023-05-01T07:28:36.687Z,54.06
2023-05-01T07:30:17.137Z,52.89
2023-05-01T07:31:57.608Z,52.34
2023-05-01T07:33:37.939Z,53.31
2023-05-01T07:35:18.383Z,52.32
2023-05-01T07:36:58.673Z,52.14
2023-05-01T07:38:39.102Z,51.36
2023-05-01T07:40:19.564Z,52.34
2023-05-01T07:41:59.982Z,51.67
2023-05-01T07:43:40.457Z,50.9
2023-05-01T07:45:20.860Z,50.04
2023-05-01T07:47:01.250Z,51.33
2023-05-01T07:48:41.724Z,50.53
2023-05-01T07:50:22.105Z,49.66
2023-05-01T07:52:02.629Z,48.23
2023-05-01T07:53:43.086Z,48.74
2023-05-01T07:55:23.609Z,48.87
2023-05-01T07:57:04.080Z,46.34
2023-05-01T07:58:44.456Z,47.09
2023-05-01T08:00:24.936Z,46.38
2023-05-01T08:02:05.359Z,47.15
2023-05-01T08:03:47.440Z,47.08
2023-05-01T08:05:26.255Z,44.97
2023-05-01T08:07:06.595Z,47.57
2023-05-01T08:08:47.034Z,47.84
2023-05-01T08:10:27.527Z,45.76
2023-05-01T08:12:07.918Z,45.27
2023-05-01T08:13:48.380Z,44.99
2023-05-01T08:15:28.836Z,45.16
2023-05-01T08:17:09.226Z,45.35
2023-05-01T08:18:49.680Z,45.67
2023-05-01T08:20:30.120Z,45.35
2023-05-01T08:22:10.570Z,44.86
2023-05-01T08:23:50.950Z,45.67
2023-05-01T08:25:31.379Z,45.79
2023-05-01T08:27:11.836Z,44.97
2023-05-01T08:28:52.276Z,44.19
2023-05-01T08:30:32.778Z,44.79
2023-05-01T08:32:13.113Z,44.35
2023-05-01T08:33:53.608Z,43.79
2023-05-01T08:35:34.085Z,44.02
2023-05-01T08:37:14.528Z,44.74
2023-05-01T08:38:54.921Z,43.8
2023-05-01T08:40:35.313Z,43.73
2023-05-01T08:42:15.799Z,42.98
2023-05-01T08:43:56.253Z,44.63
2023-05-01T08:45:36.707Z,44.88
2023-05-01T08:47:17.168Z,44.43
2023-05-01T08:48:57.575Z,45.79
2023-05-01T08:50:38.058Z,44.56
2023-05-01T08:52:18.448Z,46.2
2023-05-01T08:53:58.904Z,44.52
2023-05-01T08:55:39.292Z,43.87
2023-05-01T08:57:19.638Z,44.38
2023-05-01T08:58:59.999Z,44.7
2023-05-01T09:00:40.390Z,44.04
2023-05-01T09:02:20.961Z,43.11
2023-05-01T09:04:01.332Z,44.88
2023-05-01T09:05:41.662Z,43.89
2023-05-01T09:07:22.045Z,44.44
2023-05-01T09:09:02.436Z,42
2023-05-01T09:10:42.821Z,41.79
2023-05-01T09:12:23.352Z,39.55
2023-05-01T09:14:03.711Z,39.48
2023-05-01T09:15:44.163Z,40.58
2023-05-01T09:17:24.719Z,39.04
2023-05-01T09:19:05.078Z,38.77
2023-05-01T09:20:45.559Z,39.21
2023-05-01T09:22:25.982Z,38.52
2023-05-01T09:24:06.399Z,39.99
2023-05-01T09:25:46.756Z,38.13
2023-05-01T09:27:27.111Z,38.44
2023-05-01T09:29:07.524Z,38.18
2023-05-01T09:30:48.047Z,38.05
2023-05-01T09:32:28.700Z,37.81
2023-05-01T09:34:08.828Z,37.21
2023-05-01T09:35:49.302Z,37.56
2023-05-01T09:37:29.773Z,38.7
2023-05-01T09:39:10.201Z,37.19
2023-05-01T09:40:50.553Z,38.5
2023-05-01T09:42:30.944Z,36.08
2023-05-01T09:44:11.339Z,36.09
2023-05-01T09:45:51.759Z,37.69
2023-05-01T09:47:32.199Z,37.35
2023-05-01T09:49:12.587Z,37.71
2023-05-01T09:50:53.033Z,37.38
2023-05-01T09:52:33.414Z,33.84
2023-05-01T09:54:13.901Z,35.44
2023-05-01T09:55:54.278Z,35.45
2023-05-01T09:57:34.719Z,37.78
2023-05-01T09:59:15.219Z,37.35
2023-05-01T10:00:55.693Z,36.97
2023-05-01T10:02:36.194Z,32.93
2023-05-01T10:04:16.413Z,33.96
2023-05-01T10:05:59.230Z,36.34
2023-05-01T10:07:37.276Z,35.68
2023-05-01T10:09:17.900Z,34.34
2023-05-01T10:10:57.951Z,34.92
2023-05-01T10:12:38.315Z,32.56
2023-05-01T10:14:18.686Z,33.55
2023-05-01T10:15:59.063Z,33.34
2023-05-01T10:17:39.519Z,33.69
2023-05-01T10:19:19.898Z,33.22
2023-05-01T10:21:00.316Z,32.87
2023-05-01T10:22:40.743Z,35.29
2023-05-01T10:24:21.125Z,34.8
2023-05-01T10:26:02.958Z,33.11
2023-05-01T10:27:41.902Z,32.97
2023-05-01T10:29:22.281Z,35.92
2023-05-01T10:31:02.753Z,32.91
2023-05-01T10:32:43.172Z,35.51
2023-05-01T10:34:24.941Z,36.78
2023-05-01T10:36:04.041Z,38.66
2023-05-01T10:37:44.462Z,34.95
2023-05-01T10:39:24.854Z,33.23
2023-05-01T10:41:05.222Z,34.23
2023-05-01T10:42:45.621Z,35.68
2023-05-01T10:44:26.116Z,32.21
2023-05-01T10:46:06.512Z,32.47
2023-05-01T10:47:46.976Z,32.98
2023-05-01T10:49:27.388Z,34.92
2023-05-01T10:51:07.749Z,32.04
2023-05-01T10:52:48.222Z,33.99
2023-05-01T10:54:28.682Z,32.65
2023-05-01T10:56:09.079Z,32.87
2023-05-01T10:57:49.481Z,32.97
2023-05-01T10:59:29.906Z,31.81
2023-05-01T11:01:10.401Z,31.97
2023-05-01T11:02:50.807Z,31.38
2023-05-01T11:04:31.201Z,33.15
2023-05-01T11:06:11.697Z,33.57
2023-05-01T11:07:52.109Z,34.82
2023-05-01T11:09:32.488Z,32.14
2023-05-01T11:11:12.993Z,34.74
2023-05-01T11:12:53.405Z,34.34
2023-05-01T11:14:33.808Z,32.01
2023-05-01T11:16:14.211Z,36.14
2023-05-01T11:17:54.723Z,33.72
2023-05-01T11:19:35.060Z,32.22
2023-05-01T11:21:15.499Z,31.56
2023-05-01T11:22:55.883Z,32.95
2023-05-01T11:24:36.256Z,33.14
2023-05-01T11:26:16.728Z,33.28
2023-05-01T11:27:57.091Z,33.17
2023-05-01T11:29:37.462Z,28.63
2023-05-01T11:31:17.914Z,30.53
2023-05-01T11:32:58.340Z,33.23
2023-05-01T11:34:38.763Z,34.28
2023-05-01T11:36:19.152Z,31.54
2023-05-01T11:37:59.518Z,32.04
2023-05-01T11:39:39.928Z,30.8
2023-05-01T11:41:20.422Z,30.77
2023-05-01T11:43:00.832Z,30.82
2023-05-01T11:44:41.301Z,32.29
2023-05-01T11:46:21.779Z,30.9
2023-05-01T11:48:04.101Z,30.39
2023-05-01T11:49:42.558Z,32.01
2023-05-01T11:51:23.121Z,30.2
2023-05-01T11:53:03.605Z,31.75
2023-05-01T11:54:43.924Z,30.63
2023-05-01T11:56:26.971Z,30.84
2023-05-01T11:58:04.793Z,29.4
2023-05-01T11:59:45.183Z,30.14
2023-05-01T12:01:25.605Z,29.19
2023-05-01T12:03:06.419Z,28.83
2023-05-01T12:04:46.520Z,29.22
2023-05-01T12:06:26.883Z,31.23
2023-05-01T12:08:07.300Z,29.92
2023-05-01T12:09:47.719Z,33.2
2023-05-01T12:11:28.234Z,29.1
2023-05-01T12:13:08.598Z,29.1
2023-05-01T12:14:49.065Z,30.55
2023-05-01T12:16:29.506Z,30.26
2023-05-01T12:18:09.960Z,30.54
2023-05-01T12:19:50.295Z,30.15
2023-05-01T12:21:30.698Z,30.43
2023-05-01T12:23:11.105Z,30.98
2023-05-01T12:24:51.384Z,33.04
2023-05-01T12:26:31.864Z,33.55
2023-05-01T12:28:12.237Z,32.01
2023-05-01T12:29:52.660Z,32.33
2023-05-01T12:31:33.103Z,31.02
2023-05-01T12:33:13.473Z,33.53
2023-05-01T12:34:53.810Z,31.33
2023-05-01T12:36:34.270Z,31.98
2023-05-01T12:38:14.681Z,31.97
2023-05-01T12:39:55.123Z,32.53
2023-05-01T12:41:35.543Z,33.49
2023-05-01T12:43:16.000Z,31.62
2023-05-01T12:44:56.669Z,32.57
2023-05-01T12:46:36.926Z,31.23
2023-05-01T12:48:17.320Z,32.41
2023-05-01T12:49:57.870Z,31.07
2023-05-01T12:51:38.019Z,30.2
2023-05-01T12:53:18.439Z,32.51
2023-05-01T12:54:59.038Z,29.77
2023-05-01T12:56:39.141Z,30.64
2023-05-01T12:58:19.608Z,30.05
2023-05-01T13:00:00.295Z,31.13
2023-05-01T13:01:40.494Z,31.55
2023-05-01T13:03:20.875Z,33.82
2023-05-01T13:05:01.194Z,29.45
2023-05-01T13:06:41.758Z,32.08
2023-05-01T13:08:22.161Z,31.68
2023-05-01T13:10:02.862Z,31.88
2023-05-01T13:11:43.115Z,30.48
2023-05-01T13:13:23.588Z,29.25
2023-05-01T13:15:04.000Z,31.23
2023-05-01T13:16:44.588Z,29.6
2023-05-01T13:18:24.877Z,30
2023-05-01T13:20:05.284Z,30.63
2023-05-01T13:21:45.699Z,28.27
2023-05-01T13:23:26.223Z,29.36
2023-05-01T13:25:06.553Z,29.2
2023-05-01T13:26:46.984Z,28.41
2023-05-01T13:28:27.462Z,30.69
2023-05-01T13:30:07.836Z,28.39
2023-05-01T13:31:48.397Z,27.72
2023-05-01T13:33:28.782Z,28.53
2023-05-01T13:35:09.167Z,28.1
2023-05-01T13:36:49.575Z,27.57
2023-05-01T13:38:30.048Z,28.09
2023-05-01T13:40:10.553Z,28.29
2023-05-01T13:41:50.960Z,28.36
2023-05-01T13:43:31.381Z,26.4
2023-05-01T13:45:11.818Z,27.47
2023-05-01T13:46:52.250Z,26.47
2023-05-01T13:48:32.628Z,26.73
2023-05-01T13:50:13.001Z,26.83
2023-05-01T13:51:53.485Z,26.01
2023-05-01T13:53:33.844Z,27.74
2023-05-01T13:55:14.264Z,27.7
2023-05-01T13:56:54.686Z,28.19
2023-05-01T13:58:35.155Z,29.05
2023-05-01T14:00:15.571Z,26.92
2023-05-01T14:01:56.143Z,28.7
2023-05-01T14:03:36.571Z,25.62
2023-05-01T14:05:16.929Z,28.08
2023-05-01T14:06:57.412Z,27.36
2023-05-01T14:08:37.751Z,27.63
2023-05-01T14:10:18.211Z,28.32
2023-05-01T14:11:58.676Z,28.33
2023-05-01T14:13:39.023Z,26.96
2023-05-01T14:15:19.475Z,26.35
2023-05-01T14:16:59.934Z,28.08
2023-05-01T14:18:40.317Z,26.43
2023-05-01T14:20:20.796Z,26.9
2023-05-01T14:22:01.170Z,29.04
2023-05-01T14:23:41.601Z,28.43
2023-05-01T14:25:21.953Z,27.61
2023-05-01T14:27:02.380Z,27.58
2023-05-01T14:28:42.745Z,27.89
2023-05-01T14:30:23.123Z,28.55
2023-05-01T14:32:03.547Z,28.81
2023-05-01T14:33:44.042Z,29.54
2023-05-01T14:35:24.480Z,30.79
2023-05-01T14:37:04.902Z,30.74
2023-05-01T14:38:45.283Z,31.56
2023-05-01T14:40:25.668Z,30.43
2023-05-01T14:42:06.066Z,29.96
2023-05-01T14:43:46.416Z,31.22
2023-05-01T14:45:26.782Z,30.11
2023-05-01T14:47:07.136Z,31.17
2023-05-01T14:48:47.531Z,31.24
2023-05-01T14:50:27.923Z,31
2023-05-01T14:52:09.427Z,31.63
2023-05-01T14:53:48.775Z,31.32
2023-05-01T14:55:29.147Z,31.95
2023-05-01T14:57:09.655Z,31.38
2023-05-01T14:58:50.076Z,31.98
2023-05-01T15:00:30.492Z,33.09
2023-05-01T15:02:10.996Z,33.22
2023-05-01T15:03:51.638Z,33.47
2023-05-01T15:05:31.994Z,33.43
2023-05-01T15:07:12.395Z,33.05
2023-05-01T15:08:52.791Z,33.88
2023-05-01T15:10:33.230Z,34.51
2023-05-01T15:12:13.627Z,33.83
2023-05-01T15:13:54.125Z,34.49
2023-05-01T15:15:34.517Z,34.14
2023-05-01T15:17:14.847Z,34.24
2023-05-01T15:18:55.272Z,34.92
2023-05-01T15:20:35.633Z,35.16
2023-05-01T15:22:16.073Z,35.89
2023-05-01T15:23:56.468Z,36.07
2023-05-01T15:25:36.863Z,34.73
2023-05-01T15:27:17.304Z,34.71
2023-05-01T15:28:57.692Z,35.96
2023-05-01T15:30:38.177Z,36.88
2023-05-01T15:32:18.741Z,36.05
2023-05-01T15:33:59.020Z,35.6
2023-05-01T15:35:39.491Z,35.46
2023-05-01T15:37:19.895Z,33.55
2023-05-01T15:39:00.344Z,33.64
2023-05-01T15:40:40.721Z,32.2
2023-05-01T15:42:21.152Z,32.67
2023-05-01T15:44:01.605Z,32.21
2023-05-01T15:45:42.094Z,33.06
2023-05-01T15:47:22.393Z,34.42
2023-05-01T15:49:02.897Z,32.76
2023-05-01T15:50:43.326Z,33.35
2023-05-01T15:52:23.753Z,33.02
2023-05-01T15:54:04.163Z,32.28
2023-05-01T15:55:44.626Z,31.28
2023-05-01T15:57:24.964Z,31.35
2023-05-01T15:59:05.417Z,31.26
2023-05-01T16:00:47.126Z,31.85
2023-05-01T16:02:26.294Z,33.79
2023-05-01T16:04:06.706Z,32.49
2023-05-01T16:05:47.122Z,32.41
2023-05-01T16:07:27.537Z,33.83
2023-05-01T16:09:07.975Z,34.63
2023-05-01T16:10:48.367Z,34.32
2023-05-01T16:12:28.824Z,35.38
2023-05-01T16:14:09.238Z,34.44
2023-05-01T16:15:49.630Z,34.78
2023-05-01T16:17:30.003Z,34.22
2023-05-01T16:19:10.355Z,36.04
2023-05-01T16:20:50.770Z,36.64
2023-05-01T16:22:31.219Z,36.37
2023-05-01T16:24:11.627Z,36.68
2023-05-01T16:25:52.130Z,36.68
2023-05-01T16:27:32.657Z,35.9
2023-05-01T16:29:12.922Z,36.55
2023-05-01T16:30:53.389Z,37.98
2023-05-01T16:32:33.733Z,37.4
2023-05-01T16:34:14.175Z,36.82
2023-05-01T16:35:54.567Z,37.85
2023-05-01T16:37:34.977Z,35.63
2023-05-01T16:39:15.400Z,35.45
2023-05-01T16:40:55.752Z,35.09
2023-05-01T16:42:36.175Z,35.93
2023-05-01T16:44:16.562Z,34.48
2023-05-01T16:45:57.005Z,34.48
2023-05-01T16:47:37.412Z,34.76
2023-05-01T16:49:17.800Z,34.8
2023-05-01T16:50:58.190Z,36.29
2023-05-01T16:52:38.568Z,35.32
2023-05-01T16:54:19.013Z,35.44
2023-05-01T16:55:59.372Z,36.26
2023-05-01T16:57:40.853Z,36.78
2023-05-01T16:59:20.236Z,37.53
2023-05-01T17:01:00.664Z,37.34
2023-05-01T17:02:41.071Z,38.32
2023-05-01T17:04:21.440Z,39.08
2023-05-01T17:06:01.870Z,38.49
2023-05-01T17:07:42.296Z,39.16
2023-05-01T17:09:22.715Z,39.77
2023-05-01T17:11:03.100Z,39.75
2023-05-01T17:12:43.500Z,39.28
2023-05-01T17:14:24.008Z,40.37
2023-05-01T17:16:04.377Z,40.08
2023-05-01T17:17:44.825Z,41.26
2023-05-01T17:19:25.156Z,41.17
2023-05-01T17:21:05.643Z,41.13
2023-05-01T17:22:46.158Z,41.29
2023-05-01T17:24:26.614Z,41.76
2023-05-01T17:26:07.033Z,41.54
2023-05-01T17:27:47.471Z,41.9
2023-05-01T17:29:27.891Z,42.31
2023-05-01T17:31:08.266Z,42.91
2023-05-01T17:32:48.892Z,41.41
2023-05-01T17:34:29.198Z,42.71
2023-05-01T17:36:09.548Z,42.58
2023-05-01T17:37:49.962Z,42.27
2023-05-01T17:39:30.421Z,42.2
2023-05-01T17:41:10.841Z,43.22
2023-05-01T17:42:51.321Z,42.28
2023-05-01T17:44:31.626Z,43.02
2023-05-01T17:46:12.014Z,43.61
2023-05-01T17:47:52.478Z,43.22
2023-05-01T17:49:32.819Z,43.7
2023-05-01T17:51:13.283Z,43.82
2023-05-01T17:52:53.693Z,44.52
2023-05-01T17:54:34.082Z,44.82
2023-05-01T17:56:14.494Z,44.52
2023-05-01T17:57:54.953Z,45.11
2023-05-01T17:59:35.389Z,44.63
2023-05-01T18:01:15.870Z,46.25
2023-05-01T18:02:56.353Z,46.01
2023-05-01T18:04:37.979Z,46.27
2023-05-01T18:06:17.151Z,46.67
2023-05-01T18:07:57.575Z,47.03
2023-05-01T18:09:38.005Z,47.45
2023-05-01T18:11:18.382Z,47.33
2023-05-01T18:12:58.892Z,48.11
2023-05-01T18:14:39.405Z,48.48
2023-05-01T18:16:19.747Z,47.59
2023-05-01T18:18:00.227Z,48.06
2023-05-01T18:19:40.640Z,49.25
2023-05-01T18:21:21.090Z,48.15
2023-05-01T18:23:01.529Z,48.95
2023-05-01T18:24:42.005Z,49.79
2023-05-01T18:26:22.445Z,49.79
2023-05-01T18:28:02.781Z,51.1
2023-05-01T18:29:43.234Z,50.43
2023-05-01T18:31:23.742Z,51.09
2023-05-01T18:33:04.114Z,50.55
2023-05-01T18:34:44.486Z,51.11
2023-05-01T18:36:24.920Z,51.97
2023-05-01T18:38:05.373Z,52.32
2023-05-01T18:39:45.797Z,52.97
2023-05-01T18:41:26.174Z,53.01
2023-05-01T18:43:06.598Z,53.74
2023-05-01T18:44:47.021Z,54.06
2023-05-01T18:46:27.455Z,54.66
2023-05-01T18:48:07.863Z,53.74
2023-05-01T18:49:48.134Z,53.37
2023-05-01T18:51:28.505Z,50.69
2023-05-01T18:53:08.968Z,50.2
2023-05-01T18:54:49.364Z,51.47
2023-05-01T18:56:29.767Z,54.42
2023-05-01T18:58:10.172Z,56.44
2023-05-01T18:59:50.590Z,55.93
2023-05-01T19:01:30.929Z,59.21
2023-05-01T19:03:11.325Z,59.8
2023-05-01T19:04:57.491Z,61.76
2023-05-01T19:06:32.071Z,63.27
2023-05-01T19:08:12.522Z,62.78
2023-05-01T19:09:52.980Z,62.61
2023-05-01T19:11:33.355Z,62.79
2023-05-01T19:13:13.777Z,63.51
2023-05-01T19:14:54.164Z,63.76
2023-05-01T19:16:34.621Z,61.83
2023-05-01T19:18:14.981Z,62.68
2023-05-01T19:19:55.354Z,62.22
2023-05-01T19:21:35.811Z,62.86
2023-05-01T19:23:16.221Z,62.4
2023-05-01T19:24:56.628Z,65.91
2023-05-01T19:26:37.044Z,65.22
2023-05-01T19:28:17.423Z,71.3
2023-05-01T19:29:58.060Z,70.1
2023-05-01T19:31:38.321Z,67.22
2023-05-01T19:33:18.731Z,65.36
2023-05-01T19:34:58.981Z,65.13
2023-05-01T19:36:39.364Z,66.31
2023-05-01T19:38:19.787Z,65.59
2023-05-01T19:40:00.428Z,67.39
2023-05-01T19:41:40.684Z,67.1
2023-05-01T19:43:21.051Z,68.91
2023-05-01T19:45:01.405Z,68.27
2023-05-01T19:46:41.833Z,68.94
2023-05-01T19:48:22.291Z,68.65
2023-05-01T19:50:02.913Z,68.78
2023-05-01T19:51:43.177Z,68.97
2023-05-01T19:53:23.601Z,69.34
2023-05-01T19:55:04.025Z,70.42
2023-05-01T19:56:44.353Z,71.81
2023-05-01T19:58:24.749Z,73.04
2023-05-01T20:00:05.198Z,74.51
2023-05-01T20:01:45.876Z,75.39
2023-05-01T20:03:26.310Z,76.51
2023-05-01T20:05:06.420Z,77.03
2023-05-01T20:06:47.039Z,77.21
2023-05-01T20:08:27.092Z,78.5
2023-05-01T20:10:07.409Z,78.74
2023-05-01T20:11:47.762Z,78.48
2023-05-01T20:13:28.078Z,79.43
2023-05-01T20:15:08.458Z,79.44
2023-05-01T20:16:48.934Z,80.67
2023-05-01T20:18:29.257Z,80.51
2023-05-01T20:20:09.655Z,78.27
2023-05-01T20:21:50.056Z,77.47
2023-05-01T20:23:30.405Z,78.57
2023-05-01T20:25:10.817Z,77.94
2023-05-01T20:26:51.220Z,77.96
2023-05-01T20:28:31.680Z,77.55
2023-05-01T20:30:12.182Z,78.7
2023-05-01T20:31:52.656Z,77.75
2023-05-01T20:33:33.042Z,78.65
2023-05-01T20:35:13.404Z,77.35
2023-05-01T20:36:53.794Z,77.55
2023-05-01T20:38:34.222Z,77.31
2023-05-01T20:40:14.638Z,77.41
2023-05-01T20:41:55.113Z,77.92
2023-05-01T20:43:35.526Z,78.66
2023-05-01T20:45:15.954Z,78.07
2023-05-01T20:46:56.506Z,77.93
2023-05-01T20:48:36.789Z,78.22
2023-05-01T20:50:17.180Z,78.66
2023-05-01T20:51:57.590Z,79.03
2023-05-01T20:53:37.958Z,78.78
2023-05-01T20:55:18.349Z,77.92
2023-05-01T20:56:58.827Z,78.75
2023-05-01T20:58:39.229Z,79.15
2023-05-01T21:00:19.629Z,78.5
2023-05-01T21:02:00.160Z,78.69
2023-05-01T21:03:40.639Z,78.94
2023-05-01T21:05:20.905Z,79.4
2023-05-01T21:07:01.365Z,79.95
2023-05-01T21:08:41.767Z,79.72
2023-05-01T21:10:22.138Z,79.32
2023-05-01T21:12:02.615Z,78.97
2023-05-01T21:13:43.007Z,79.6
2023-05-01T21:15:23.368Z,79.82
2023-05-01T21:17:03.821Z,80.72
2023-05-01T21:18:44.186Z,80.57
2023-05-01T21:20:24.572Z,80.74
2023-05-01T21:22:05.015Z,80.79
2023-05-01T21:23:45.443Z,81.39
2023-05-01T21:25:25.792Z,81.48
2023-05-01T21:27:06.178Z,81.14
2023-05-01T21:28:46.647Z,81.55
2023-05-01T21:30:27.087Z,81.77
2023-05-01T21:32:07.654Z,81.62
2023-05-01T21:33:47.954Z,81.81
2023-05-01T21:35:28.366Z,81.82
2023-05-01T21:37:08.824Z,81.77